Aripuana, Brazil
Current Conditions -  °F | °C
As of 10:00 AM on Sunday 21 Dec 2014 (Local Time) from SBAT Reporting Station
Clear Clear  
Wind Chill: 90°   Ceiling: Unl
Heat Index: 96°   Visibility: 6mi
Dew Point: 72°   Wind: 1mph
Humidity: 55%   Direction: 40°NE
Pressure: 29.94"   Gusts: NA
Location:  10.17°S, 59.46°W
Report Text: SBAT 211300Z 04001KT CAVOK 32/22 Q1014
Loading
Personal Weather Stations






























Interactive Weather Map New forecast layout! Learn more

10-Day Weather Forecast

Advertisements
Track Severe Weather on mobile